Time;durP1;ratioP1;P1;durP2;ratioP2;P2;SDS_P1;SDS_P2;PMS_P1;PMS_P2;Temp;Humidity;BMP_temperature;BMP_pressure;BME280_temperature;BME280_humidity;BME280_pressure;Samples;Min_cycle;Max_cycle;Signal;HPM_P1;HPM_P2
2022/02/03 00:00:24;;;;;;;;;;;8.20;85.50;;;;;;4878669;29;20412;-69
2022/02/03 00:05:55;;;;;;;;;;;8.30;85.30;;;;;;4876997;29;19928;-69
2022/02/03 00:25:12;;;;;;;;;;;8.20;85.20;;;;;;4837785;29;20339;-69
2022/02/03 00:28:06;;;;;;;;;;;8.20;85.20;;;;;;4836843;29;19937;-69
2022/02/03 00:33:15;;;;;;;;;;;8.20;85.30;;;;;;4836911;29;19936;-69
2022/02/03 00:49:10;;;;;;;;;;;8.20;85.40;;;;;;4821864;29;20554;-68
2022/02/03 00:51:51;;;;;;;;;;;8.20;85.40;;;;;;4836208;29;20314;-69
2022/02/03 00:54:24;;;;;;;;;;;8.20;85.30;;;;;;4801186;29;20346;-68
2022/02/03 00:56:53;;;;;;;;;;;8.20;85.20;;;;;;4858217;29;19954;-69
2022/02/03 00:59:36;;;;;;;;;;;8.20;85.20;;;;;;4879925;29;19927;-67
2022/02/03 01:02:05;;;;;;;;;;;8.20;85.20;;;;;;4879981;29;19957;-68
2022/02/03 01:04:36;;;;;;;;;;;8.20;85.20;;;;;;4879824;29;19936;-67
2022/02/03 01:07:07;;;;;;;;;;;8.30;85.10;;;;;;4879458;29;19935;-68
2022/02/03 01:09:38;;;;;;;;;;;8.20;85.00;;;;;;4878481;29;20321;-68
2022/02/03 01:12:21;;;;;;;;;;;8.20;85.00;;;;;;4880792;29;20407;-68
2022/02/03 01:15:10;;;;;;;;;;;8.30;85.00;;;;;;4880461;29;20317;-68
2022/02/03 01:45:02;;;;;;;;;;;8.40;84.30;;;;;;4878818;29;19928;-68
2022/02/03 01:47:48;;;;;;;;;;;8.30;84.30;;;;;;4879761;29;20330;-68
2022/02/03 01:52:51;;;;;;;;;;;8.30;84.20;;;;;;4878589;29;19927;-68
2022/02/03 01:55:24;;;;;;;;;;;8.40;84.20;;;;;;4877060;29;19935;-68
2022/02/03 01:58:02;;;;;;;;;;;8.30;84.10;;;;;;4879443;29;19931;-68
2022/02/03 02:00:45;;;;;;;;;;;8.40;84.00;;;;;;4879035;29;19943;-68
2022/02/03 02:03:14;;;;;;;;;;;8.40;84.00;;;;;;4876761;29;19939;-68
2022/02/03 02:05:44;;;;;;;;;;;8.40;84.10;;;;;;4878038;29;19935;-68
2022/02/03 02:08:12;;;;;;;;;;;8.30;84.10;;;;;;4877138;29;19935;-68
2022/02/03 02:13:55;;;;;;;;;;;8.30;84.20;;;;;;4877369;29;19927;-68
2022/02/03 02:18:59;;;;;;;;;;;8.30;83.90;;;;;;4876888;29;19939;-68
2022/02/03 02:38:13;;;;;;;;;;;8.40;83.60;;;;;;4878713;29;19928;-68
2022/02/03 02:43:35;;;;;;;;;;;8.40;83.60;;;;;;4879072;29;19927;-68
2022/02/03 02:46:08;;;;;;;;;;;8.30;83.70;;;;;;4878733;29;20330;-68
2022/02/03 02:49:13;;;;;;;;;;;8.30;83.70;;;;;;4878344;29;19928;-68
2022/02/03 02:52:07;;;;;;;;;;;8.30;83.70;;;;;;4876900;29;19935;-68
2022/02/03 02:54:55;;;;;;;;;;;8.30;83.70;;;;;;4877304;29;19928;-68
2022/02/03 03:00:52;;;;;;;;;;;8.30;83.70;;;;;;4877694;29;19927;-68
2022/02/03 03:36:29;;;;;;;;;;;8.10;84.60;;;;;;4877624;29;19928;-68
2022/02/03 03:38:50;;;;;;;;;;;8.20;84.70;;;;;;4873180;29;19935;-68
2022/02/03 03:41:19;;;;;;;;;;;8.20;84.70;;;;;;4877592;29;19927;-68
2022/02/03 03:43:58;;;;;;;;;;;8.20;84.80;;;;;;4877487;29;19959;-68
2022/02/03 03:46:27;;;;;;;;;;;8.10;84.80;;;;;;4877492;29;19934;-68
2022/02/03 03:49:03;;;;;;;;;;;8.20;84.90;;;;;;4877297;29;19928;-69
2022/02/03 03:51:32;;;;;;;;;;;8.10;84.90;;;;;;4872975;29;19935;-68
2022/02/03 03:54:05;;;;;;;;;;;8.10;85.00;;;;;;4860040;29;19928;-68
2022/02/03 03:57:01;;;;;;;;;;;8.10;85.10;;;;;;4877118;29;19953;-68
2022/02/03 04:29:11;;;;;;;;;;;7.90;85.90;;;;;;4879108;29;19935;-68
2022/02/03 04:34:46;;;;;;;;;;;7.80;86.10;;;;;;4879849;29;20231;-68
2022/02/03 04:59:25;;;;;;;;;;;7.60;86.70;;;;;;4878485;29;19943;-67
2022/02/03 05:04:59;;;;;;;;;;;7.60;86.80;;;;;;4879008;29;19950;-67
2022/02/03 05:14:23;;;;;;;;;;;7.60;86.90;;;;;;4875728;29;19928;-68
2022/02/03 05:43:18;;;;;;;;;;;7.60;87.60;;;;;;4872927;29;19935;-67
2022/02/03 05:51:35;;;;;;;;;;;7.60;87.80;;;;;;4879583;29;19928;-68
2022/02/03 06:02:46;;;;;;;;;;;7.60;88.10;;;;;;4878487;29;19947;-68
2022/02/03 06:05:29;;;;;;;;;;;7.60;88.10;;;;;;4879159;29;19935;-68
2022/02/03 06:08:27;;;;;;;;;;;7.50;88.10;;;;;;4894232;29;19928;-68
2022/02/03 06:17:00;;;;;;;;;;;7.50;88.20;;;;;;4877215;29;19928;-68
2022/02/03 06:21:31;;;;;;;;;;;7.50;88.30;;;;;;4878668;29;19955;-68
2022/02/03 06:29:17;;;;;;;;;;;7.50;88.30;;;;;;4873010;29;19944;-68
2022/02/03 06:31:45;;;;;;;;;;;7.50;88.30;;;;;;4880155;29;20413;-68
2022/02/03 06:34:17;;;;;;;;;;;7.50;88.40;;;;;;4879933;29;20305;-68
2022/02/03 06:36:45;;;;;;;;;;;7.50;88.30;;;;;;4885581;29;19935;-69
2022/02/03 06:39:17;;;;;;;;;;;7.40;88.30;;;;;;4877406;29;20405;-68
2022/02/03 06:41:53;;;;;;;;;;;7.40;88.40;;;;;;4884951;29;19927;-68
2022/02/03 06:44:50;;;;;;;;;;;7.50;88.40;;;;;;4889852;29;20293;-68
2022/02/03 06:52:20;;;;;;;;;;;7.40;88.50;;;;;;4887803;29;19938;-68
2022/02/03 06:57:23;;;;;;;;;;;7.40;88.50;;;;;;4887942;29;19935;-68
2022/02/03 07:00:01;;;;;;;;;;;7.30;88.50;;;;;;4885986;29;19928;-68
2022/02/03 07:02:32;;;;;;;;;;;7.30;88.50;;;;;;4879865;29;20286;-68
2022/02/03 07:04:59;;;;;;;;;;;7.30;88.50;;;;;;4877224;29;19928;-68
2022/02/03 07:07:27;;;;;;;;;;;7.30;88.60;;;;;;4879019;29;19936;-68
2022/02/03 07:09:54;;;;;;;;;;;7.30;88.60;;;;;;4879573;29;19935;-69
2022/02/03 07:12:22;;;;;;;;;;;7.30;88.50;;;;;;4878047;29;19936;-68
2022/02/03 07:14:50;;;;;;;;;;;7.30;88.50;;;;;;4876120;29;19928;-68
2022/02/03 07:17:17;;;;;;;;;;;7.30;88.40;;;;;;4878008;29;19928;-69
2022/02/03 07:19:49;;;;;;;;;;;7.30;88.20;;;;;;4856257;29;19928;-67
2022/02/03 07:22:17;;;;;;;;;;;7.30;88.20;;;;;;4872810;29;19936;-68
2022/02/03 07:24:51;;;;;;;;;;;7.30;88.10;;;;;;4878050;29;20390;-68
2022/02/03 07:27:20;;;;;;;;;;;7.30;88.00;;;;;;4878147;29;19939;-68
2022/02/03 07:29:49;;;;;;;;;;;7.30;87.80;;;;;;4875640;29;19928;-68
2022/02/03 07:32:16;;;;;;;;;;;7.30;87.90;;;;;;4875294;29;19934;-68
2022/02/03 07:34:44;;;;;;;;;;;7.30;87.90;;;;;;4877605;29;19928;-68
2022/02/03 07:37:12;;;;;;;;;;;7.30;87.70;;;;;;4876509;29;19943;-67
2022/02/03 07:39:40;;;;;;;;;;;7.30;87.60;;;;;;4876567;29;19939;-68
2022/02/03 07:42:07;;;;;;;;;;;7.30;87.50;;;;;;4878683;29;20400;-68
2022/02/03 07:44:35;;;;;;;;;;;7.30;87.50;;;;;;4876445;29;19935;-68
2022/02/03 07:47:02;;;;;;;;;;;7.30;87.50;;;;;;4876309;29;19939;-68
2022/02/03 07:49:31;;;;;;;;;;;7.30;87.50;;;;;;4876449;29;19934;-68
2022/02/03 07:51:59;;;;;;;;;;;7.20;87.40;;;;;;4877712;29;20390;-68
2022/02/03 07:54:26;;;;;;;;;;;7.20;87.50;;;;;;4875250;29;19928;-68
2022/02/03 07:56:54;;;;;;;;;;;7.20;87.60;;;;;;4877012;29;20305;-68
2022/02/03 07:59:21;;;;;;;;;;;7.20;87.60;;;;;;4877128;29;19935;-68
2022/02/03 08:01:48;;;;;;;;;;;7.20;87.60;;;;;;4880749;29;19927;-68
2022/02/03 08:04:20;;;;;;;;;;;7.20;87.60;;;;;;4878149;29;19935;-67
2022/02/03 08:06:48;;;;;;;;;;;7.30;87.50;;;;;;4875921;29;20354;-68
2022/02/03 08:09:30;;;;;;;;;;;7.30;87.50;;;;;;4884095;29;19928;-67
2022/02/03 08:11:58;;;;;;;;;;;7.30;87.40;;;;;;4881483;29;19928;-67
2022/02/03 08:14:40;;;;;;;;;;;7.30;87.40;;;;;;4887786;29;19928;-68
2022/02/03 08:17:12;;;;;;;;;;;7.30;87.40;;;;;;4876333;29;19935;-68
2022/02/03 08:20:05;;;;;;;;;;;7.30;87.20;;;;;;4874741;29;19935;-69
2022/02/03 08:22:34;;;;;;;;;;;7.30;87.20;;;;;;4877640;29;19934;-68
2022/02/03 08:32:48;;;;;;;;;;;7.40;87.30;;;;;;4878535;29;19927;-67
2022/02/03 08:35:33;;;;;;;;;;;7.30;87.30;;;;;;4876927;29;19928;-68
2022/02/03 08:38:33;;;;;;;;;;;7.30;87.40;;;;;;4877014;29;19935;-67
2022/02/03 08:43:20;;;;;;;;;;;7.30;87.60;;;;;;4877585;29;19935;-67
2022/02/03 08:45:47;;;;;;;;;;;7.30;87.60;;;;;;4878780;29;19935;-67
2022/02/03 08:48:15;;;;;;;;;;;7.30;87.50;;;;;;4878601;29;19935;-68
2022/02/03 08:50:43;;;;;;;;;;;7.40;87.30;;;;;;4878453;29;19935;-68
2022/02/03 09:58:14;;;;;;;;;;;8.10;85.90;;;;;;4881410;29;19935;-68
2022/02/03 10:03:15;;;;;;;;;;;8.20;85.90;;;;;;4880688;29;19928;-67
2022/02/03 10:05:55;;;;;;;;;;;8.20;85.90;;;;;;4880609;29;19932;-67
2022/02/03 10:08:23;;;;;;;;;;;8.20;85.90;;;;;;4880143;29;19947;-68
2022/02/03 10:10:50;;;;;;;;;;;8.30;85.90;;;;;;4880651;29;20293;-67
2022/02/03 10:13:19;;;;;;;;;;;8.30;85.60;;;;;;4878924;29;19928;-68
2022/02/03 10:15:47;;;;;;;;;;;8.30;85.30;;;;;;4880776;29;19927;-68
2022/02/03 10:18:29;;;;;;;;;;;8.40;84.90;;;;;;4880561;29;19932;-68
2022/02/03 10:20:57;;;;;;;;;;;8.40;85.00;;;;;;4880353;29;19928;-67
2022/02/03 10:23:25;;;;;;;;;;;8.40;84.90;;;;;;4878661;29;19932;-68
2022/02/03 10:26:03;;;;;;;;;;;8.50;85.00;;;;;;4879257;29;20416;-68
2022/02/03 10:28:33;;;;;;;;;;;8.50;84.80;;;;;;4880608;29;19934;-68
2022/02/03 10:31:02;;;;;;;;;;;8.60;85.00;;;;;;4880391;29;19928;-67
2022/02/03 10:33:39;;;;;;;;;;;8.70;85.00;;;;;;4880499;29;20275;-68
2022/02/03 10:36:24;;;;;;;;;;;8.70;85.00;;;;;;4880270;29;19992;-67
2022/02/03 10:39:26;;;;;;;;;;;8.80;84.80;;;;;;4879880;29;19928;-68
2022/02/03 10:42:04;;;;;;;;;;;8.90;84.50;;;;;;4878861;29;19932;-68
2022/02/03 10:53:14;;;;;;;;;;;9.10;84.20;;;;;;4880251;29;19928;-68
2022/02/03 11:04:02;;;;;;;;;;;9.10;83.80;;;;;;4879193;29;19931;-67
2022/02/03 11:06:57;;;;;;;;;;;9.10;83.30;;;;;;4879258;29;19928;-68
2022/02/03 11:09:22;;;;;;;;;;;9.10;83.10;;;;;;4878226;29;19928;-69
2022/02/03 11:11:55;;;;;;;;;;;9.20;83.40;;;;;;4879182;29;19935;-67
2022/02/03 11:14:23;;;;;;;;;;;9.30;83.40;;;;;;4878761;29;19928;-67
2022/02/03 11:16:52;;;;;;;;;;;9.30;83.30;;;;;;4879446;29;19927;-68
2022/02/03 11:19:21;;;;;;;;;;;9.40;82.90;;;;;;4879137;29;19928;-67
2022/02/03 11:21:52;;;;;;;;;;;9.50;82.80;;;;;;4879580;29;19935;-67
2022/02/03 11:24:26;;;;;;;;;;;9.60;82.40;;;;;;4879936;29;19928;-67
2022/02/03 11:27:10;;;;;;;;;;;9.70;82.20;;;;;;4879393;29;20563;-67
2022/02/03 11:30:27;;;;;;;;;;;9.80;81.70;;;;;;4877765;29;19935;-68
2022/02/03 11:47:03;;;;;;;;;;;10.50;78.80;;;;;;4860703;29;19935;-68
2022/02/03 11:58:09;;;;;;;;;;;11.10;76.70;;;;;;4878772;29;19928;-68
2022/02/03 12:03:27;;;;;;;;;;;11.30;75.20;;;;;;4879202;29;19935;-68
2022/02/03 12:11:27;;;;;;;;;;;11.80;74.00;;;;;;4859191;29;19928;-68
2022/02/03 12:17:26;;;;;;;;;;;12.10;72.70;;;;;;4857562;29;20434;-68
2022/02/03 12:19:55;;;;;;;;;;;12.70;71.10;;;;;;4858233;29;19932;-68
2022/02/03 12:23:13;;;;;;;;;;;13.20;69.40;;;;;;4857871;29;19936;-68
2022/02/03 12:28:01;;;;;;;;;;;13.70;68.80;;;;;;4865101;29;19935;-68
2022/02/03 12:39:19;;;;;;;;;;;14.20;63.90;;;;;;4875906;29;19928;-68
2022/02/03 12:42:17;;;;;;;;;;;14.30;64.20;;;;;;4858044;29;19939;-68
2022/02/03 12:44:45;;;;;;;;;;;14.40;62.90;;;;;;4870762;29;20375;-68
2022/02/03 12:47:13;;;;;;;;;;;14.40;62.20;;;;;;4879402;29;20034;-68
2022/02/03 12:49:41;;;;;;;;;;;14.30;63.00;;;;;;4882395;29;19928;-69
2022/02/03 12:52:21;;;;;;;;;;;14.10;62.90;;;;;;4881184;29;19932;-68
2022/02/03 12:54:49;;;;;;;;;;;14.20;63.70;;;;;;4881811;29;19928;-68
2022/02/03 12:57:30;;;;;;;;;;;14.40;62.00;;;;;;4881427;29;19928;-69
2022/02/03 13:00:15;;;;;;;;;;;14.00;62.80;;;;;;4880758;29;19928;-69
2022/02/03 13:02:54;;;;;;;;;;;13.90;63.80;;;;;;4882364;29;19928;-69
2022/02/03 13:05:22;;;;;;;;;;;14.00;64.00;;;;;;4882171;29;19954;-69
2022/02/03 13:07:51;;;;;;;;;;;14.00;64.10;;;;;;4881924;29;19935;-69
2022/02/03 13:10:21;;;;;;;;;;;13.80;63.90;;;;;;4877147;29;19935;-69
2022/02/03 13:12:59;;;;;;;;;;;13.80;64.30;;;;;;4879904;29;20297;-69
2022/02/03 13:15:35;;;;;;;;;;;14.10;63.90;;;;;;4881124;29;19935;-70
2022/02/03 13:18:08;;;;;;;;;;;14.10;62.80;;;;;;4895648;29;19931;-68
2022/02/03 13:20:41;;;;;;;;;;;14.20;63.20;;;;;;4882009;29;19927;-68
2022/02/03 13:23:17;;;;;;;;;;;14.50;61.60;;;;;;4882253;29;19950;-68
2022/02/03 13:26:09;;;;;;;;;;;14.80;61.20;;;;;;4898841;29;19928;-68
2022/02/03 13:28:47;;;;;;;;;;;14.80;61.50;;;;;;4888088;29;19932;-69
2022/02/03 13:31:40;;;;;;;;;;;15.00;60.00;;;;;;4879787;29;20287;-69
2022/02/03 13:34:16;;;;;;;;;;;15.30;59.00;;;;;;4879721;29;19935;-69
2022/02/03 13:36:49;;;;;;;;;;;15.30;59.00;;;;;;4880524;29;19928;-69
2022/02/03 13:39:25;;;;;;;;;;;14.90;59.90;;;;;;4880323;29;19935;-69
2022/02/03 13:42:05;;;;;;;;;;;14.90;60.20;;;;;;4862395;29;19929;-69
2022/02/03 13:44:32;;;;;;;;;;;15.00;59.90;;;;;;4874434;29;19965;-68
2022/02/03 13:47:00;;;;;;;;;;;15.20;59.60;;;;;;4880079;29;19934;-68
2022/02/03 13:49:29;;;;;;;;;;;15.40;58.80;;;;;;4864588;29;20401;-68
2022/02/03 13:52:03;;;;;;;;;;;15.60;57.70;;;;;;4880610;29;19927;-69
2022/02/03 14:10:29;;;;;;;;;;;15.40;57.40;;;;;;4881516;29;19928;-68
2022/02/03 14:14:51;;;;;;;;;;;12.80;68.60;;;;;;4873959;29;20449;-69
2022/02/03 14:28:04;;;;;;;;;;;14.40;62.30;;;;;;4880075;29;20410;-69
2022/02/03 14:30:36;;;;;;;;;;;14.30;61.70;;;;;;4880930;29;19928;-69
2022/02/03 14:33:03;;;;;;;;;;;14.40;61.60;;;;;;4880323;29;19928;-69
2022/02/03 14:35:31;;;;;;;;;;;14.30;62.10;;;;;;4879003;29;19935;-69
2022/02/03 14:38:26;;;;;;;;;;;14.20;62.10;;;;;;4878818;29;19932;-69
2022/02/03 14:43:25;;;;;;;;;;;13.80;62.80;;;;;;4880262;29;19935;-69
2022/02/03 14:46:15;;;;;;;;;;;13.30;64.30;;;;;;4880837;29;19928;-69
2022/02/03 14:48:44;;;;;;;;;;;12.80;66.40;;;;;;4880227;29;19927;-69
2022/02/03 14:51:15;;;;;;;;;;;12.40;67.70;;;;;;4879891;29;20310;-69
2022/02/03 14:59:03;;;;;;;;;;;11.70;70.40;;;;;;4879898;29;20326;-68
2022/02/03 15:01:32;;;;;;;;;;;11.50;71.10;;;;;;4878671;29;20401;-69
2022/02/03 15:04:01;;;;;;;;;;;11.60;71.50;;;;;;4878226;29;19934;-69
2022/02/03 15:06:33;;;;;;;;;;;11.70;71.70;;;;;;4878554;29;19935;-68
2022/02/03 15:14:14;;;;;;;;;;;12.10;71.00;;;;;;4879351;29;20339;-68
2022/02/03 15:16:41;;;;;;;;;;;12.40;70.10;;;;;;4879157;29;19935;-68
2022/02/03 15:19:22;;;;;;;;;;;12.60;69.30;;;;;;4881234;29;19927;-68
2022/02/03 15:21:49;;;;;;;;;;;12.60;68.80;;;;;;4885883;29;19936;-68
2022/02/03 15:24:17;;;;;;;;;;;12.40;69.10;;;;;;4877975;29;19931;-68
2022/02/03 15:26:44;;;;;;;;;;;12.60;69.10;;;;;;4879421;29;19936;-69
2022/02/03 15:29:13;;;;;;;;;;;12.80;68.10;;;;;;4878044;29;19928;-68
2022/02/03 15:31:42;;;;;;;;;;;13.00;67.60;;;;;;4890582;29;20386;-68
2022/02/03 15:34:29;;;;;;;;;;;12.90;66.90;;;;;;4896123;29;19934;-68
2022/02/03 15:37:06;;;;;;;;;;;12.50;67.50;;;;;;4877085;29;19943;-68
2022/02/03 15:39:40;;;;;;;;;;;12.10;68.90;;;;;;4877611;29;19934;-69
2022/02/03 15:42:07;;;;;;;;;;;11.80;69.80;;;;;;4878564;29;19928;-69
2022/02/03 15:44:40;;;;;;;;;;;11.60;70.70;;;;;;4895215;29;19927;-69
2022/02/03 15:47:18;;;;;;;;;;;11.40;71.60;;;;;;4875938;29;19939;-69
2022/02/03 16:17:02;;;;;;;;;;;10.50;74.70;;;;;;4876186;29;19935;-69
2022/02/03 16:20:10;;;;;;;;;;;10.50;75.10;;;;;;4876730;29;19935;-68
2022/02/03 16:54:32;;;;;;;;;;;10.00;79.60;;;;;;4867479;29;19939;-68
2022/02/03 16:57:04;;;;;;;;;;;10.00;79.60;;;;;;4878074;29;20333;-68
2022/02/03 16:59:35;;;;;;;;;;;9.90;79.80;;;;;;4861456;29;19935;-68
2022/02/03 17:02:02;;;;;;;;;;;10.00;79.90;;;;;;4876604;29;20398;-68
2022/02/03 17:04:30;;;;;;;;;;;10.00;80.00;;;;;;4874064;29;19939;-68
2022/02/03 17:06:57;;;;;;;;;;;9.90;80.30;;;;;;4871802;29;19948;-68
2022/02/03 17:09:25;;;;;;;;;;;9.90;80.50;;;;;;4876160;29;20011;-68
2022/02/03 17:11:52;;;;;;;;;;;9.90;80.80;;;;;;4876398;29;19942;-68
2022/02/03 17:14:20;;;;;;;;;;;9.90;80.90;;;;;;4877729;29;19939;-68
2022/02/03 17:16:47;;;;;;;;;;;9.90;80.90;;;;;;4877952;29;19928;-68
2022/02/03 17:19:15;;;;;;;;;;;9.90;80.70;;;;;;4881679;29;19928;-77
2022/02/03 17:21:42;;;;;;;;;;;9.90;80.70;;;;;;4881097;29;19942;-69
2022/02/03 17:24:11;;;;;;;;;;;9.90;80.70;;;;;;4865852;29;20110;-69
2022/02/03 17:26:51;;;;;;;;;;;9.90;80.40;;;;;;4883224;29;20438;-69
2022/02/03 17:29:33;;;;;;;;;;;9.90;80.40;;;;;;4880326;29;19927;-70
2022/02/03 17:32:16;;;;;;;;;;;9.90;80.30;;;;;;4880242;29;20034;-71
2022/02/03 18:32:25;;;;;;;;;;;10.00;79.40;;;;;;4876691;29;19954;-69
2022/02/03 18:51:06;;;;;;;;;;;9.80;79.60;;;;;;4877610;29;19935;-68
2022/02/03 18:53:57;;;;;;;;;;;9.80;79.70;;;;;;4879252;29;20314;-72
2022/02/03 18:56:37;;;;;;;;;;;9.90;79.80;;;;;;4859909;29;19936;-73
2022/02/03 20:02:46;;;;;;;;;;;10.20;79.80;;;;;;4876866;29;19935;-68
2022/02/03 20:05:38;;;;;;;;;;;10.20;79.70;;;;;;4875862;29;20386;-68
2022/02/03 20:08:17;;;;;;;;;;;10.30;79.50;;;;;;4876642;29;19928;-69
2022/02/03 20:10:48;;;;;;;;;;;10.30;79.50;;;;;;4874547;29;20313;-68
2022/02/03 20:13:16;;;;;;;;;;;10.30;79.50;;;;;;4875772;29;20010;-69
2022/02/03 20:15:46;;;;;;;;;;;10.30;79.60;;;;;;4875559;29;19928;-68
2022/02/03 20:18:14;;;;;;;;;;;10.20;79.80;;;;;;4876846;29;20384;-68
2022/02/03 20:20:45;;;;;;;;;;;10.20;79.70;;;;;;4874653;29;19928;-68
2022/02/03 20:23:15;;;;;;;;;;;10.20;79.80;;;;;;4873862;29;19931;-69
2022/02/03 20:25:49;;;;;;;;;;;10.20;80.00;;;;;;4875739;29;19932;-70
2022/02/03 20:28:17;;;;;;;;;;;10.20;80.20;;;;;;4879106;29;19928;-69
2022/02/03 20:30:45;;;;;;;;;;;10.10;80.40;;;;;;4859617;29;19934;-68
2022/02/03 20:33:12;;;;;;;;;;;10.10;80.60;;;;;;4876121;29;19935;-69
2022/02/03 20:35:40;;;;;;;;;;;10.10;80.30;;;;;;4875875;29;19935;-67
2022/02/03 20:38:08;;;;;;;;;;;10.10;80.20;;;;;;4874326;29;19928;-67
2022/02/03 20:40:35;;;;;;;;;;;10.10;80.30;;;;;;4877198;29;20251;-67
2022/02/03 20:43:09;;;;;;;;;;;10.10;80.30;;;;;;4875494;29;19936;-67
2022/02/03 20:45:37;;;;;;;;;;;10.00;80.40;;;;;;4876656;29;19927;-67
2022/02/03 20:48:05;;;;;;;;;;;10.00;80.50;;;;;;4877349;29;20330;-68
2022/02/03 20:50:33;;;;;;;;;;;10.00;80.40;;;;;;4876332;29;19931;-68
2022/02/03 20:53:00;;;;;;;;;;;10.10;80.40;;;;;;4875170;29;19938;-68
2022/02/03 20:55:30;;;;;;;;;;;10.00;80.40;;;;;;4877087;29;19928;-67
2022/02/03 20:57:58;;;;;;;;;;;10.00;80.40;;;;;;4876336;29;19927;-68
2022/02/03 21:00:35;;;;;;;;;;;10.00;80.50;;;;;;4876493;29;20306;-67
2022/02/03 21:03:08;;;;;;;;;;;10.00;80.70;;;;;;4871929;29;20081;-68
2022/02/03 21:05:35;;;;;;;;;;;10.00;80.60;;;;;;4875544;29;19928;-67
2022/02/03 21:08:03;;;;;;;;;;;10.00;80.60;;;;;;4878300;29;19928;-67
2022/02/03 21:10:31;;;;;;;;;;;10.00;80.50;;;;;;4880633;29;19935;-67
2022/02/03 21:12:59;;;;;;;;;;;10.00;80.50;;;;;;4879757;29;19935;-68
2022/02/03 21:15:38;;;;;;;;;;;10.00;80.40;;;;;;4879352;29;19932;-68
2022/02/03 21:18:07;;;;;;;;;;;10.00;80.50;;;;;;4880288;29;19935;-67
2022/02/03 21:20:36;;;;;;;;;;;10.00;80.50;;;;;;4879266;29;19928;-67
2022/02/03 21:23:04;;;;;;;;;;;10.00;80.50;;;;;;4879458;29;19943;-67
2022/02/03 21:25:38;;;;;;;;;;;9.90;80.60;;;;;;4886747;29;19932;-67
2022/02/03 21:28:11;;;;;;;;;;;9.90;80.70;;;;;;4900248;29;20280;-67
2022/02/03 21:30:39;;;;;;;;;;;9.90;80.70;;;;;;4885193;29;19934;-67
2022/02/03 21:33:10;;;;;;;;;;;9.90;80.80;;;;;;4879331;29;19928;-67
2022/02/03 21:35:40;;;;;;;;;;;9.90;80.70;;;;;;4880931;29;19928;-67
2022/02/03 21:38:08;;;;;;;;;;;9.90;80.80;;;;;;4881292;29;19935;-67
2022/02/03 21:40:36;;;;;;;;;;;9.90;80.90;;;;;;4880905;29;20389;-67
2022/02/03 21:43:03;;;;;;;;;;;9.80;81.00;;;;;;4879566;29;19936;-68
2022/02/03 21:45:34;;;;;;;;;;;9.80;81.00;;;;;;4882549;29;19934;-67
2022/02/03 21:48:03;;;;;;;;;;;9.80;81.00;;;;;;4900200;29;20429;-68
2022/02/03 21:50:36;;;;;;;;;;;9.80;81.20;;;;;;4890658;29;19928;-68
2022/02/03 21:53:13;;;;;;;;;;;9.70;81.30;;;;;;4880632;29;19943;-67
2022/02/03 21:55:41;;;;;;;;;;;9.60;81.40;;;;;;4880975;29;19935;-68
2022/02/03 21:58:09;;;;;;;;;;;9.50;81.60;;;;;;4879734;29;20468;-68
2022/02/03 22:00:37;;;;;;;;;;;9.40;81.70;;;;;;4878222;29;19927;-68
2022/02/03 22:03:05;;;;;;;;;;;9.40;81.80;;;;;;4878587;29;19927;-68
2022/02/03 22:05:33;;;;;;;;;;;9.40;82.10;;;;;;4879947;29;19947;-67
2022/02/03 22:08:00;;;;;;;;;;;9.30;81.90;;;;;;4880730;29;19928;-67
2022/02/03 22:10:28;;;;;;;;;;;9.40;81.80;;;;;;4880507;29;20386;-68
2022/02/03 22:12:56;;;;;;;;;;;9.50;81.70;;;;;;4881285;29;19935;-67
2022/02/03 22:15:26;;;;;;;;;;;9.40;81.60;;;;;;4880604;29;19938;-68
2022/02/03 22:17:54;;;;;;;;;;;9.50;81.30;;;;;;4879470;29;19936;-68
2022/02/03 22:20:33;;;;;;;;;;;9.50;81.20;;;;;;4878825;29;19928;-68
2022/02/03 22:26:22;;;;;;;;;;;9.60;81.10;;;;;;4880500;29;19935;-67
2022/02/03 22:45:02;;;;;;;;;;;9.80;80.40;;;;;;4880113;29;19935;-67
2022/02/03 22:47:55;;;;;;;;;;;9.80;80.30;;;;;;4880387;29;19927;-66
2022/02/03 22:50:22;;;;;;;;;;;9.80;80.20;;;;;;4880153;29;19947;-67
2022/02/03 22:52:50;;;;;;;;;;;9.80;80.20;;;;;;4880049;29;19927;-67
2022/02/03 22:55:17;;;;;;;;;;;9.80;80.10;;;;;;4880553;29;19928;-67
2022/02/03 22:57:58;;;;;;;;;;;9.80;80.10;;;;;;4878777;29;19928;-67
2022/02/03 23:00:41;;;;;;;;;;;9.80;80.10;;;;;;4879946;29;19928;-67
2022/02/03 23:03:09;;;;;;;;;;;9.80;80.10;;;;;;4894441;29;19935;-67
2022/02/03 23:05:36;;;;;;;;;;;9.70;80.20;;;;;;4886802;29;19927;-67
2022/02/03 23:08:18;;;;;;;;;;;9.70;80.30;;;;;;4878672;29;20027;-66
2022/02/03 23:23:53;;;;;;;;;;;9.60;80.50;;;;;;4878280;29;19935;-68
2022/02/03 23:26:23;;;;;;;;;;;9.60;80.40;;;;;;4877238;29;19928;-67
2022/02/03 23:28:56;;;;;;;;;;;9.60;80.30;;;;;;4873747;29;19928;-67
2022/02/03 23:31:26;;;;;;;;;;;9.60;80.20;;;;;;4877221;29;19928;-67
2022/02/03 23:33:54;;;;;;;;;;;9.60;80.10;;;;;;4876640;29;19935;-68
2022/02/03 23:36:22;;;;;;;;;;;9.70;80.10;;;;;;4876083;29;19936;-67
2022/02/03 23:39:05;;;;;;;;;;;9.70;80.10;;;;;;4875826;29;19928;-67
